Time;durP1;ratioP1;P1;durP2;ratioP2;P2;SDS_P1;SDS_P2;PMS_P1;PMS_P2;Temp;Humidity;BMP_temperature;BMP_pressure;BME280_temperature;BME280_humidity;BME280_pressure;Samples;Min_cycle;Max_cycle;Signal;HPM_P1;HPM_P2
2023/09/06 00:01:21;;;;;;;;;;;120.61;114.10;;;;;;2672325;76;20441;-87
2023/09/06 00:04:49;;;;;;;;;;;120.61;114.10;;;;;;2672481;76;20982;-88
2023/09/06 00:08:17;;;;;;;;;;;120.61;114.10;;;;;;2672774;76;20732;-87
2023/09/06 00:11:45;;;;;;;;;;;120.61;114.10;;;;;;2671903;76;20482;-88
2023/09/06 00:15:13;;;;;;;;;;;120.61;114.10;;;;;;2672691;76;20439;-88
2023/09/06 00:18:42;;;;;;;;;;;120.61;114.10;;;;;;2672275;76;22054;-88
2023/09/06 00:22:10;;;;;;;;;;;120.61;114.10;;;;;;2671853;76;20724;-88
2023/09/06 00:25:38;;;;;;;;;;;120.61;114.10;;;;;;2672098;76;20450;-88
2023/09/06 00:29:07;;;;;;;;;;;120.61;114.10;;;;;;2672406;76;20473;-88
2023/09/06 00:32:35;;;;;;;;;;;120.61;114.10;;;;;;2672231;76;20470;-86
2023/09/06 00:36:04;;;;;;;;;;;120.61;114.10;;;;;;2671306;76;20423;-87
2023/09/06 00:39:32;;;;;;;;;;;120.61;114.10;;;;;;2672427;76;20465;-86
2023/09/06 00:43:00;;;;;;;;;;;120.61;114.10;;;;;;2672142;76;20539;-87
2023/09/06 00:46:28;;;;;;;;;;;120.61;114.10;;;;;;2672681;76;20344;-87
2023/09/06 00:49:56;;;;;;;;;;;120.61;114.10;;;;;;2671883;76;20926;-86
2023/09/06 00:53:24;;;;;;;;;;;120.61;114.10;;;;;;2672162;76;20448;-87
2023/09/06 00:56:53;;;;;;;;;;;120.61;114.10;;;;;;2672869;76;20446;-87
2023/09/06 01:00:24;;;;;;;;;;;120.61;114.10;;;;;;2672072;76;20473;-87
2023/09/06 01:03:52;;;;;;;;;;;120.61;114.10;;;;;;2672895;76;20510;-90
2023/09/06 01:07:23;;;;;;;;;;;120.61;114.10;;;;;;2672069;76;20489;-90
2023/09/06 01:10:51;;;;;;;;;;;120.61;114.10;;;;;;2671521;76;20468;-89
2023/09/06 01:14:19;;;;;;;;;;;120.61;114.10;;;;;;2670725;76;20559;-90
2023/09/06 01:17:47;;;;;;;;;;;120.61;114.10;;;;;;2671305;76;20333;-86
2023/09/06 01:21:16;;;;;;;;;;;120.61;114.10;;;;;;2672308;76;20822;-87
2023/09/06 01:24:44;;;;;;;;;;;120.61;114.10;;;;;;2672534;76;20440;-87
2023/09/06 01:28:12;;;;;;;;;;;120.61;114.10;;;;;;2672195;76;20495;-87
2023/09/06 01:31:41;;;;;;;;;;;120.61;114.10;;;;;;2670920;76;23108;-87
2023/09/06 01:35:10;;;;;;;;;;;120.61;114.10;;;;;;2672217;76;20458;-87
2023/09/06 01:38:38;;;;;;;;;;;120.61;114.10;;;;;;2672292;76;20371;-87
2023/09/06 01:42:06;;;;;;;;;;;120.61;114.10;;;;;;2672301;76;20367;-87
2023/09/06 01:45:35;;;;;;;;;;;120.61;114.10;;;;;;2671206;76;20321;-89
2023/09/06 01:49:03;;;;;;;;;;;120.61;114.10;;;;;;2672708;76;20689;-89
2023/09/06 01:52:31;;;;;;;;;;;120.61;114.10;;;;;;2671732;76;20465;-89
2023/09/06 01:56:01;;;;;;;;;;;120.61;114.10;;;;;;2671914;76;20658;-88
2023/09/06 01:59:29;;;;;;;;;;;120.61;114.10;;;;;;2672184;76;20811;-90
2023/09/06 02:02:57;;;;;;;;;;;120.61;114.10;;;;;;2671403;76;20366;-90
2023/09/06 02:06:25;;;;;;;;;;;120.61;114.10;;;;;;2671631;76;20469;-89
2023/09/06 02:09:55;;;;;;;;;;;120.61;114.10;;;;;;2672178;76;20454;-89
2023/09/06 02:13:23;;;;;;;;;;;120.61;114.10;;;;;;2671774;76;20447;-88
2023/09/06 02:16:51;;;;;;;;;;;120.61;114.10;;;;;;2671789;76;20889;-89
2023/09/06 02:20:25;;;;;;;;;;;120.61;114.10;;;;;;2671198;76;20465;-89
2023/09/06 02:23:49;;;;;;;;;;;120.61;114.10;;;;;;2670670;76;20447;-86
2023/09/06 02:27:17;;;;;;;;;;;120.61;114.10;;;;;;2670682;76;20464;-86
2023/09/06 02:30:46;;;;;;;;;;;120.61;114.10;;;;;;2671352;76;20466;-86
2023/09/06 02:34:14;;;;;;;;;;;120.61;114.10;;;;;;2671384;76;20370;-86
2023/09/06 02:37:42;;;;;;;;;;;120.61;114.10;;;;;;2671002;76;20490;-87
2023/09/06 02:41:11;;;;;;;;;;;120.61;114.10;;;;;;2671822;76;20477;-87
2023/09/06 02:44:39;;;;;;;;;;;120.61;114.10;;;;;;2672576;76;20338;-86
2023/09/06 02:48:07;;;;;;;;;;;120.61;114.10;;;;;;2671746;76;20432;-85
2023/09/06 02:51:37;;;;;;;;;;;120.61;114.10;;;;;;2670327;76;20558;-86
2023/09/06 02:55:10;;;;;;;;;;;120.61;114.10;;;;;;2670596;76;20467;-85
2023/09/06 02:58:37;;;;;;;;;;;120.61;114.10;;;;;;2671352;76;20428;-85
2023/09/06 03:02:05;;;;;;;;;;;120.61;114.10;;;;;;2669992;76;20480;-85
2023/09/06 03:05:34;;;;;;;;;;;120.61;114.10;;;;;;2670489;76;20457;-84
2023/09/06 03:09:06;;;;;;;;;;;120.61;114.10;;;;;;2670378;76;20477;-87
2023/09/06 03:12:32;;;;;;;;;;;120.61;114.10;;;;;;2670398;76;20327;-85
2023/09/06 03:16:00;;;;;;;;;;;120.61;114.10;;;;;;2671321;76;20338;-84
2023/09/06 03:19:33;;;;;;;;;;;120.61;114.10;;;;;;2670696;76;20497;-85
2023/09/06 03:22:59;;;;;;;;;;;120.61;114.10;;;;;;2670030;76;20679;-85
2023/09/06 03:26:27;;;;;;;;;;;120.61;114.10;;;;;;2670733;76;21396;-85
2023/09/06 03:29:57;;;;;;;;;;;120.61;114.10;;;;;;2669545;76;20911;-84
2023/09/06 03:33:25;;;;;;;;;;;120.61;114.10;;;;;;2671028;76;20349;-85
2023/09/06 03:36:55;;;;;;;;;;;120.61;114.10;;;;;;2670259;76;20490;-84
2023/09/06 03:40:34;;;;;;;;;;;120.61;114.10;;;;;;2670433;76;20470;-84
2023/09/06 03:43:56;;;;;;;;;;;120.61;114.10;;;;;;2671248;76;21163;-85
2023/09/06 03:47:24;;;;;;;;;;;120.61;114.10;;;;;;2669359;76;20954;-85
2023/09/06 03:50:52;;;;;;;;;;;120.61;114.10;;;;;;2668519;76;20473;-83
2023/09/06 03:54:20;;;;;;;;;;;120.61;114.10;;;;;;2669319;76;20512;-84
2023/09/06 03:57:48;;;;;;;;;;;120.61;114.10;;;;;;2669397;76;20474;-85
2023/09/06 04:01:19;;;;;;;;;;;120.61;114.10;;;;;;2668721;76;20757;-84
2023/09/06 04:04:47;;;;;;;;;;;120.61;114.10;;;;;;2669961;76;20465;-87
2023/09/06 04:08:18;;;;;;;;;;;120.61;114.10;;;;;;2669211;76;20432;-87
2023/09/06 04:11:46;;;;;;;;;;;120.61;114.10;;;;;;2668354;76;20494;-87
2023/09/06 04:15:14;;;;;;;;;;;120.61;114.10;;;;;;2668216;76;20877;-87
2023/09/06 04:18:42;;;;;;;;;;;120.61;114.10;;;;;;2668365;76;20448;-87
2023/09/06 04:22:12;;;;;;;;;;;120.61;114.10;;;;;;2663579;76;20363;-87
2023/09/06 04:25:44;;;;;;;;;;;120.61;114.10;;;;;;2666663;76;20594;-87
2023/09/06 04:29:12;;;;;;;;;;;120.61;114.10;;;;;;2668989;76;20603;-86
2023/09/06 04:32:41;;;;;;;;;;;120.61;114.10;;;;;;2668620;76;20479;-86
2023/09/06 04:36:09;;;;;;;;;;;120.61;114.10;;;;;;2667251;76;20475;-86
2023/09/06 04:39:37;;;;;;;;;;;120.61;114.10;;;;;;2666125;76;20473;-86
2023/09/06 04:43:07;;;;;;;;;;;120.61;114.10;;;;;;2667481;76;20486;-86
2023/09/06 04:46:35;;;;;;;;;;;120.61;114.10;;;;;;2666887;76;20594;-86
2023/09/06 04:50:04;;;;;;;;;;;120.61;114.10;;;;;;2667870;76;20866;-86
2023/09/06 04:53:33;;;;;;;;;;;120.61;114.10;;;;;;2668444;76;20445;-86
2023/09/06 04:57:02;;;;;;;;;;;120.61;114.10;;;;;;2667933;76;20454;-86
2023/09/06 05:00:36;;;;;;;;;;;120.61;114.10;;;;;;2667924;76;20453;-86
2023/09/06 05:04:03;;;;;;;;;;;120.61;114.10;;;;;;2668594;76;20992;-86
2023/09/06 05:07:31;;;;;;;;;;;120.61;114.10;;;;;;2668055;76;20466;-86
2023/09/06 05:11:00;;;;;;;;;;;120.61;114.10;;;;;;2667265;76;20331;-87
2023/09/06 05:14:29;;;;;;;;;;;120.61;114.10;;;;;;2668200;76;20977;-86
2023/09/06 05:17:57;;;;;;;;;;;120.61;114.10;;;;;;2668193;76;20466;-87
2023/09/06 05:21:25;;;;;;;;;;;120.61;114.10;;;;;;2667579;76;20453;-87
2023/09/06 05:24:53;;;;;;;;;;;120.61;114.10;;;;;;2669243;76;21166;-85
2023/09/06 05:28:22;;;;;;;;;;;120.61;114.10;;;;;;2669745;76;20500;-87
2023/09/06 05:31:50;;;;;;;;;;;120.61;114.10;;;;;;2669626;76;20477;-87
2023/09/06 05:35:18;;;;;;;;;;;120.61;114.10;;;;;;2669709;76;20449;-87
2023/09/06 05:38:47;;;;;;;;;;;120.61;114.10;;;;;;2668603;76;20469;-85
2023/09/06 05:42:15;;;;;;;;;;;120.61;114.10;;;;;;2668290;76;20473;-86
2023/09/06 05:45:43;;;;;;;;;;;120.61;114.10;;;;;;2668043;76;20424;-87
2023/09/06 05:49:12;;;;;;;;;;;120.61;114.10;;;;;;2668343;76;20502;-86
2023/09/06 05:52:40;;;;;;;;;;;120.61;114.10;;;;;;2669108;76;20480;-87
2023/09/06 05:56:08;;;;;;;;;;;120.61;114.10;;;;;;2668729;76;20453;-86
2023/09/06 05:59:37;;;;;;;;;;;120.61;114.10;;;;;;2669084;76;20457;-86
2023/09/06 06:03:05;;;;;;;;;;;120.61;114.10;;;;;;2668926;76;20481;-87
2023/09/06 06:06:34;;;;;;;;;;;120.61;114.10;;;;;;2671411;76;20714;-87
2023/09/06 06:10:03;;;;;;;;;;;120.61;114.10;;;;;;2669292;76;20827;-86
2023/09/06 06:13:32;;;;;;;;;;;120.61;114.10;;;;;;2671742;76;20475;-87
2023/09/06 06:17:00;;;;;;;;;;;120.61;114.10;;;;;;2671059;76;20380;-87
2023/09/06 06:20:28;;;;;;;;;;;120.61;114.10;;;;;;2668787;76;20924;-87
2023/09/06 06:23:56;;;;;;;;;;;120.61;114.10;;;;;;2669449;76;20479;-87
2023/09/06 06:27:24;;;;;;;;;;;120.61;114.10;;;;;;2669406;76;20494;-87
2023/09/06 06:30:52;;;;;;;;;;;120.61;114.10;;;;;;2669239;76;20855;-87
2023/09/06 06:34:21;;;;;;;;;;;120.61;114.10;;;;;;2669181;76;20447;-87
2023/09/06 06:37:49;;;;;;;;;;;120.61;114.10;;;;;;2670013;76;20328;-87
2023/09/06 06:41:22;;;;;;;;;;;120.61;114.10;;;;;;2671551;76;20507;-88
2023/09/06 06:44:51;;;;;;;;;;;120.61;114.10;;;;;;2671135;76;20464;-87
2023/09/06 06:48:19;;;;;;;;;;;120.61;114.10;;;;;;2670341;76;20453;-90
2023/09/06 06:51:47;;;;;;;;;;;120.61;114.10;;;;;;2671865;76;20438;-89
2023/09/06 06:55:15;;;;;;;;;;;120.61;114.10;;;;;;2670848;76;20507;-87
2023/09/06 06:58:43;;;;;;;;;;;120.61;114.10;;;;;;2671466;76;20897;-89
2023/09/06 07:02:13;;;;;;;;;;;120.61;114.10;;;;;;2672145;76;20450;-89
2023/09/06 07:05:41;;;;;;;;;;;120.61;114.10;;;;;;2670445;76;20490;-90
2023/09/06 07:09:10;;;;;;;;;;;120.61;114.10;;;;;;2669117;76;20593;-88
2023/09/06 07:12:38;;;;;;;;;;;120.61;114.10;;;;;;2669709;76;20490;-89
2023/09/06 07:16:07;;;;;;;;;;;120.61;114.10;;;;;;2670267;76;20465;-88
2023/09/06 07:19:35;;;;;;;;;;;120.61;114.10;;;;;;2669193;76;20498;-88
2023/09/06 07:23:03;;;;;;;;;;;120.61;114.10;;;;;;2671981;76;20633;-88
2023/09/06 07:26:31;;;;;;;;;;;120.61;114.10;;;;;;2671507;76;20459;-88
2023/09/06 07:29:59;;;;;;;;;;;120.61;114.10;;;;;;2671571;76;20450;-89
2023/09/06 07:33:27;;;;;;;;;;;120.61;114.10;;;;;;2671349;76;20467;-89
2023/09/06 07:36:55;;;;;;;;;;;120.61;114.10;;;;;;2670100;76;20467;-89
2023/09/06 07:40:24;;;;;;;;;;;120.61;114.10;;;;;;2671735;76;20383;-89
2023/09/06 07:43:52;;;;;;;;;;;120.61;114.10;;;;;;2671104;76;20331;-89
2023/09/06 07:47:20;;;;;;;;;;;120.61;114.10;;;;;;2671317;76;21203;-90
2023/09/06 07:50:48;;;;;;;;;;;120.61;114.10;;;;;;2671785;76;20485;-89
2023/09/06 07:54:16;;;;;;;;;;;120.61;114.10;;;;;;2672394;76;20339;-90
2023/09/06 07:57:44;;;;;;;;;;;120.61;114.10;;;;;;2670269;76;20451;-90
2023/09/06 08:01:12;;;;;;;;;;;120.61;114.10;;;;;;2670590;76;20451;-87
2023/09/06 08:04:41;;;;;;;;;;;120.61;114.10;;;;;;2669625;76;20463;-88
2023/09/06 08:15:27;;;;;;;;;;;;;;;;;;;;;
2023/09/06 08:18:51;;;;;;;;;;;120.61;114.10;;;;;;2671519;76;20448;-89
2023/09/06 08:22:32;;;;;;;;;;;;;;;;;;;;;
2023/09/06 08:25:56;;;;;;;;;;;120.61;114.10;;;;;;2669638;76;20454;-89
2023/09/06 08:29:36;;;;;;;;;;;;;;;;;;;;;
2023/09/06 08:33:12;;;;;;;;;;;;;;;;;;;;;
2023/09/06 08:36:38;;;;;;;;;;;120.61;114.10;;;;;;2669731;76;20504;-88
2023/09/06 08:40:16;;;;;;;;;;;120.61;114.10;;;;;;2668204;76;21502;-85
2023/09/06 08:43:59;;;;;;;;;;;;;;;;;;;;;
2023/09/06 08:47:41;;;;;;;;;;;;;;;;;;;;;
2023/09/06 08:51:20;;;;;;;;;;;120.61;114.10;;;;;;2671107;76;20465;-89
2023/09/06 08:55:01;;;;;;;;;;;120.61;114.10;;;;;;2669253;76;20451;-87
2023/09/06 08:58:20;;;;;;;;;;;120.61;114.10;;;;;;2670215;76;20430;-90
2023/09/06 09:02:15;;;;;;;;;;;;;;;;;;;;;
2023/09/06 09:05:45;;;;;;;;;;;120.61;114.10;;;;;;2670490;76;20459;-91
2023/09/06 09:12:59;;;;;;;;;;;;;;;;;;;;;
2023/09/06 09:16:26;;;;;;;;;;;120.61;114.10;;;;;;2670843;76;20347;-90
2023/09/06 09:20:03;;;;;;;;;;;120.61;114.10;;;;;;2670429;76;20469;-89
2023/09/06 09:23:30;;;;;;;;;;;120.61;114.10;;;;;;2670724;76;20621;-90
2023/09/06 09:30:33;;;;;;;;;;;120.61;114.10;;;;;;2670295;76;20437;-88
2023/09/06 09:34:03;;;;;;;;;;;120.61;114.10;;;;;;2670606;76;20520;-89
2023/09/06 09:37:35;;;;;;;;;;;120.61;114.10;;;;;;2670784;76;20443;-90
2023/09/06 09:41:10;;;;;;;;;;;120.61;114.10;;;;;;2670786;76;20448;-89
2023/09/06 09:44:34;;;;;;;;;;;120.61;114.10;;;;;;2670861;76;20457;-87
2023/09/06 09:48:02;;;;;;;;;;;120.61;114.10;;;;;;2670322;76;20599;-88
2023/09/06 09:51:30;;;;;;;;;;;120.61;114.10;;;;;;2671141;76;20766;-88
2023/09/06 09:54:58;;;;;;;;;;;120.61;114.10;;;;;;2671780;76;20469;-89
2023/09/06 09:58:27;;;;;;;;;;;120.61;114.10;;;;;;2670624;76;20428;-88
2023/09/06 10:02:00;;;;;;;;;;;120.61;114.10;;;;;;2668790;76;21203;-87
2023/09/06 10:05:49;;;;;;;;;;;120.61;114.10;;;;;;2670143;76;20330;-90
2023/09/06 10:09:12;;;;;;;;;;;120.61;114.10;;;;;;2670292;76;20314;-88
2023/09/06 10:13:01;;;;;;;;;;;;;;;;;;;;;
2023/09/06 10:16:34;;;;;;;;;;;;;;;;;;;;;
2023/09/06 10:19:55;;;;;;;;;;;120.61;114.10;;;;;;2670960;76;20476;-89
2023/09/06 10:23:30;;;;;;;;;;;;;;;;;;;;;
2023/09/06 10:26:56;;;;;;;;;;;120.61;114.10;;;;;;2669323;76;20492;-89
2023/09/06 10:30:50;;;;;;;;;;;;;;;;;;;;;
2023/09/06 10:34:19;;;;;;;;;;;120.61;114.10;;;;;;2669270;76;20424;-88
2023/09/06 10:37:57;;;;;;;;;;;120.61;114.10;;;;;;2669793;76;20425;-89
2023/09/06 10:41:26;;;;;;;;;;;120.61;114.10;;;;;;2669274;76;20954;-89
2023/09/06 10:45:00;;;;;;;;;;;120.61;114.10;;;;;;2670630;76;20306;-91
2023/09/06 10:48:27;;;;;;;;;;;120.61;114.10;;;;;;2670732;76;20427;-90
2023/09/06 10:51:55;;;;;;;;;;;120.61;114.10;;;;;;2670541;76;21085;-91
2023/09/06 10:55:26;;;;;;;;;;;120.61;114.10;;;;;;2671041;76;20344;-90
2023/09/06 10:58:59;;;;;;;;;;;120.61;114.10;;;;;;2671105;76;20365;-90
2023/09/06 11:02:42;;;;;;;;;;;;;;;;;;;;;
2023/09/06 11:06:14;;;;;;;;;;;;;;;;;;;;;
2023/09/06 11:09:43;;;;;;;;;;;120.61;114.10;;;;;;2668407;76;20456;-89
2023/09/06 11:13:28;;;;;;;;;;;;;;;;;;;;;
2023/09/06 11:16:47;;;;;;;;;;;120.61;114.10;;;;;;2666907;76;21260;-89
2023/09/06 11:20:30;;;;;;;;;;;;;;;;;;;;;
2023/09/06 11:31:26;;;;;;;;;;;;;;;;;;;;;
2023/09/06 11:35:05;;;;;;;;;;;;;;;;;;;;;
2023/09/06 11:38:34;;;;;;;;;;;;;;;;;;;;;
2023/09/06 11:42:04;;;;;;;;;;;120.61;114.10;;;;;;2668967;76;20474;-89
2023/09/06 11:49:21;;;;;;;;;;;;;;;;;;;;;
2023/09/06 11:56:39;;;;;;;;;;;;;;;;;;;;;
2023/09/06 12:03:49;;;;;;;;;;;;;;;;;;;;;
2023/09/06 12:07:14;;;;;;;;;;;120.61;114.10;;;;;;2669323;76;20891;-88
2023/09/06 12:10:43;;;;;;;;;;;120.61;114.10;;;;;;2670456;76;20344;-88
2023/09/06 12:14:12;;;;;;;;;;;120.61;114.10;;;;;;2669215;76;20508;-89
2023/09/06 12:17:40;;;;;;;;;;;120.61;114.10;;;;;;2670226;76;20452;-89
2023/09/06 12:21:22;;;;;;;;;;;120.61;114.10;;;;;;2671060;76;20459;-88
2023/09/06 12:24:59;;;;;;;;;;;;;;;;;;;;;
2023/09/06 12:28:35;;;;;;;;;;;;;;;;;;;;;
2023/09/06 12:32:08;;;;;;;;;;;120.61;114.10;;;;;;2670485;76;20457;-87
2023/09/06 12:35:58;;;;;;;;;;;;;;;;;;;;;
2023/09/06 12:39:31;;;;;;;;;;;120.61;114.10;;;;;;2669918;76;20533;-87
2023/09/06 12:43:05;;;;;;;;;;;;;;;;;;;;;
2023/09/06 12:46:50;;;;;;;;;;;;;;;;;;;;;
2023/09/06 12:50:19;;;;;;;;;;;;;;;;;;;;;
2023/09/06 13:08:55;;;;;;;;;;;;;;;;;;;;;
2023/09/06 13:12:07;;;;;;;;;;;120.61;114.10;;;;;;2670369;76;20347;-88
2023/09/06 13:15:47;;;;;;;;;;;120.61;114.10;;;;;;2668872;76;20463;-89
2023/09/06 13:19:33;;;;;;;;;;;;;;;;;;;;;
2023/09/06 13:23:14;;;;;;;;;;;;;;;;;;;;;
2023/09/06 13:26:53;;;;;;;;;;;;;;;;;;;;;
2023/09/06 13:30:34;;;;;;;;;;;120.61;114.10;;;;;;2671186;76;20958;-91
2023/09/06 13:34:51;;;;;;;;;;;;;;;;;;;;;
2023/09/06 13:37:47;;;;;;;;;;;;;;;;;;;;;
2023/09/06 13:41:10;;;;;;;;;;;120.61;114.10;;;;;;2670679;76;21012;-91
2023/09/06 13:44:38;;;;;;;;;;;120.61;114.10;;;;;;2672088;76;20323;-91
2023/09/06 13:48:06;;;;;;;;;;;120.61;114.10;;;;;;2671585;76;20409;-91
2023/09/06 13:51:34;;;;;;;;;;;120.61;114.10;;;;;;2672166;76;20489;-91
2023/09/06 13:55:03;;;;;;;;;;;120.61;114.10;;;;;;2671995;76;20320;-91
2023/09/06 13:58:35;;;;;;;;;;;120.61;114.10;;;;;;2672460;76;20430;-91
2023/09/06 14:02:04;;;;;;;;;;;120.61;114.10;;;;;;2672228;76;20421;-91
2023/09/06 14:05:33;;;;;;;;;;;120.61;114.10;;;;;;2672374;76;20853;-91
2023/09/06 14:09:04;;;;;;;;;;;120.61;114.10;;;;;;2671461;76;20464;-91
2023/09/06 14:12:35;;;;;;;;;;;120.61;114.10;;;;;;2672396;76;20437;-91
2023/09/06 14:16:03;;;;;;;;;;;120.61;114.10;;;;;;2671206;76;20447;-90
2023/09/06 14:19:32;;;;;;;;;;;120.61;114.10;;;;;;2670843;76;20980;-89
2023/09/06 14:23:00;;;;;;;;;;;120.61;114.10;;;;;;2670896;76;20491;-90
2023/09/06 14:26:28;;;;;;;;;;;120.61;114.10;;;;;;2671695;76;20464;-89
2023/09/06 14:29:57;;;;;;;;;;;120.61;114.10;;;;;;2671568;76;20459;-90
2023/09/06 14:33:26;;;;;;;;;;;120.61;114.10;;;;;;2672016;76;20352;-91
2023/09/06 14:36:54;;;;;;;;;;;120.61;114.10;;;;;;2672160;76;20645;-91
2023/09/06 14:40:22;;;;;;;;;;;120.61;114.10;;;;;;2671478;76;20424;-91
2023/09/06 14:43:50;;;;;;;;;;;120.61;114.10;;;;;;2671389;76;20471;-91
2023/09/06 14:47:18;;;;;;;;;;;120.61;114.10;;;;;;2671488;76;20337;-91
2023/09/06 14:50:47;;;;;;;;;;;120.61;114.10;;;;;;2671601;76;20483;-90
2023/09/06 14:54:16;;;;;;;;;;;120.61;114.10;;;;;;2670516;76;21572;-91
2023/09/06 14:57:44;;;;;;;;;;;120.61;114.10;;;;;;2670435;76;20447;-92
2023/09/06 15:01:17;;;;;;;;;;;120.61;114.10;;;;;;2671202;76;20918;-92
2023/09/06 15:04:42;;;;;;;;;;;120.61;114.10;;;;;;2672117;76;20334;-92
2023/09/06 15:08:11;;;;;;;;;;;120.61;114.10;;;;;;2670933;76;20428;-92
2023/09/06 15:11:40;;;;;;;;;;;120.61;114.10;;;;;;2670624;76;21035;-92
2023/09/06 15:15:08;;;;;;;;;;;120.61;114.10;;;;;;2668482;76;20450;-91
2023/09/06 15:18:36;;;;;;;;;;;120.61;114.10;;;;;;2670935;76;20470;-92
2023/09/06 15:22:05;;;;;;;;;;;120.61;114.10;;;;;;2669843;76;20893;-90
2023/09/06 15:25:39;;;;;;;;;;;120.61;114.10;;;;;;2664851;76;20442;-90
2023/09/06 15:29:03;;;;;;;;;;;120.61;114.10;;;;;;2669485;76;20396;-92
2023/09/06 15:32:31;;;;;;;;;;;120.61;114.10;;;;;;2669816;76;20428;-92
2023/09/06 15:36:00;;;;;;;;;;;120.61;114.10;;;;;;2669983;76;20795;-91
2023/09/06 15:39:31;;;;;;;;;;;120.61;114.10;;;;;;2670030;76;20925;-91
2023/09/06 15:42:59;;;;;;;;;;;120.61;114.10;;;;;;2670918;76;20493;-91
2023/09/06 15:46:32;;;;;;;;;;;120.61;114.10;;;;;;2670776;76;20686;-90
2023/09/06 15:49:58;;;;;;;;;;;120.61;114.10;;;;;;2670896;76;20451;-90
2023/09/06 15:53:26;;;;;;;;;;;120.61;114.10;;;;;;2670569;76;20416;-90
2023/09/06 15:56:59;;;;;;;;;;;120.61;114.10;;;;;;2670966;76;20368;-90
2023/09/06 16:00:24;;;;;;;;;;;120.61;114.10;;;;;;2669920;76;20427;-90
2023/09/06 16:03:55;;;;;;;;;;;120.61;114.10;;;;;;2670289;76;20432;-91
2023/09/06 16:07:24;;;;;;;;;;;120.61;114.10;;;;;;2669931;76;20688;-89
2023/09/06 16:10:52;;;;;;;;;;;120.61;114.10;;;;;;2671636;76;20476;-90
2023/09/06 16:14:20;;;;;;;;;;;120.61;114.10;;;;;;2672065;76;20710;-89
2023/09/06 16:17:48;;;;;;;;;;;120.61;114.10;;;;;;2672252;76;20442;-90
2023/09/06 16:21:16;;;;;;;;;;;120.61;114.10;;;;;;2672264;76;20471;-90
2023/09/06 16:24:45;;;;;;;;;;;120.61;114.10;;;;;;2671408;76;20429;-90
2023/09/06 16:28:13;;;;;;;;;;;120.61;114.10;;;;;;2672466;76;20449;-90
2023/09/06 16:31:41;;;;;;;;;;;120.61;114.10;;;;;;2672703;76;20443;-90
2023/09/06 16:35:09;;;;;;;;;;;120.61;114.10;;;;;;2672386;76;20524;-89
2023/09/06 16:38:37;;;;;;;;;;;120.61;114.10;;;;;;2672611;76;20463;-90
2023/09/06 16:42:05;;;;;;;;;;;120.61;114.10;;;;;;2671657;76;20432;-91
2023/09/06 16:45:34;;;;;;;;;;;120.61;114.10;;;;;;2672289;76;20925;-91
2023/09/06 16:49:02;;;;;;;;;;;120.61;114.10;;;;;;2670831;76;20874;-89
2023/09/06 16:52:32;;;;;;;;;;;120.61;114.10;;;;;;2672146;76;20493;-90
2023/09/06 16:56:00;;;;;;;;;;;120.61;114.10;;;;;;2671210;76;20463;-90
2023/09/06 16:59:28;;;;;;;;;;;120.61;114.10;;;;;;2671894;76;20494;-90
2023/09/06 17:02:56;;;;;;;;;;;120.61;114.10;;;;;;2672862;76;20509;-90
2023/09/06 17:06:24;;;;;;;;;;;120.61;114.10;;;;;;2672843;76;20443;-90
2023/09/06 17:09:52;;;;;;;;;;;120.61;114.10;;;;;;2672953;76;20421;-90
2023/09/06 17:13:21;;;;;;;;;;;120.61;114.10;;;;;;2672532;76;20488;-89
2023/09/06 17:16:52;;;;;;;;;;;120.61;114.10;;;;;;2672500;76;20324;-89
2023/09/06 17:20:25;;;;;;;;;;;120.61;114.10;;;;;;2672505;76;20440;-89
2023/09/06 17:23:53;;;;;;;;;;;120.61;114.10;;;;;;2672222;76;20979;-90
2023/09/06 17:27:22;;;;;;;;;;;120.61;114.10;;;;;;2670510;76;20416;-89
2023/09/06 17:30:51;;;;;;;;;;;120.61;114.10;;;;;;2670969;76;20968;-90
2023/09/06 17:34:19;;;;;;;;;;;120.61;114.10;;;;;;2671953;76;20434;-88
2023/09/06 17:37:47;;;;;;;;;;;120.61;114.10;;;;;;2671126;76;20488;-89
2023/09/06 17:41:15;;;;;;;;;;;120.61;114.10;;;;;;2671454;76;20452;-90
2023/09/06 17:44:43;;;;;;;;;;;120.61;114.10;;;;;;2671274;76;20439;-89
2023/09/06 17:48:12;;;;;;;;;;;120.61;114.10;;;;;;2671043;76;21018;-89
2023/09/06 17:51:42;;;;;;;;;;;120.61;114.10;;;;;;2671047;76;20462;-90
2023/09/06 17:55:13;;;;;;;;;;;120.61;114.10;;;;;;2670860;76;20450;-89
2023/09/06 17:58:40;;;;;;;;;;;120.61;114.10;;;;;;2670897;76;20435;-89
2023/09/06 18:02:09;;;;;;;;;;;120.61;114.10;;;;;;2670831;76;20506;-89
2023/09/06 18:05:38;;;;;;;;;;;120.61;114.10;;;;;;2670834;76;20977;-89
2023/09/06 18:09:09;;;;;;;;;;;120.61;114.10;;;;;;2670784;76;20437;-89
2023/09/06 18:12:38;;;;;;;;;;;120.61;114.10;;;;;;2671200;76;20535;-89
2023/09/06 18:16:06;;;;;;;;;;;120.61;114.10;;;;;;2671313;76;20437;-89
2023/09/06 18:19:34;;;;;;;;;;;120.61;114.10;;;;;;2670879;76;20462;-89
2023/09/06 18:23:03;;;;;;;;;;;120.61;114.10;;;;;;2671026;76;20428;-90
2023/09/06 18:26:31;;;;;;;;;;;120.61;114.10;;;;;;2671029;76;20455;-90
2023/09/06 18:29:59;;;;;;;;;;;120.61;114.10;;;;;;2670572;76;20424;-89
2023/09/06 18:33:27;;;;;;;;;;;120.61;114.10;;;;;;2671248;76;20928;-89
2023/09/06 18:36:56;;;;;;;;;;;120.61;114.10;;;;;;2671285;76;20471;-90
2023/09/06 18:40:24;;;;;;;;;;;120.61;114.10;;;;;;2671193;76;20818;-89
2023/09/06 18:43:52;;;;;;;;;;;120.61;114.10;;;;;;2670756;76;20460;-89
2023/09/06 18:47:20;;;;;;;;;;;120.61;114.10;;;;;;2665673;76;20412;-89
2023/09/06 18:50:48;;;;;;;;;;;120.61;114.10;;;;;;2669617;76;20433;-89
2023/09/06 18:54:16;;;;;;;;;;;120.61;114.10;;;;;;2670443;76;20435;-89
2023/09/06 18:57:44;;;;;;;;;;;120.61;114.10;;;;;;2670656;76;20496;-89
2023/09/06 19:01:13;;;;;;;;;;;120.61;114.10;;;;;;2670749;76;20487;-89
2023/09/06 19:04:41;;;;;;;;;;;120.61;114.10;;;;;;2670723;76;20485;-87
2023/09/06 19:08:14;;;;;;;;;;;120.61;114.10;;;;;;2671089;76;20441;-89
2023/09/06 19:11:42;;;;;;;;;;;120.61;114.10;;;;;;2670132;76;20484;-89
2023/09/06 19:15:10;;;;;;;;;;;120.61;114.10;;;;;;2670085;76;20483;-89
2023/09/06 19:18:38;;;;;;;;;;;120.61;114.10;;;;;;2669015;76;20449;-89
2023/09/06 19:22:06;;;;;;;;;;;120.61;114.10;;;;;;2670652;76;20430;-88
2023/09/06 19:25:41;;;;;;;;;;;120.61;114.10;;;;;;2670085;76;20468;-89
2023/09/06 19:29:04;;;;;;;;;;;120.61;114.10;;;;;;2669365;76;20886;-90
2023/09/06 19:32:32;;;;;;;;;;;120.61;114.10;;;;;;2669234;76;20457;-89
2023/09/06 19:36:01;;;;;;;;;;;120.61;114.10;;;;;;2669245;76;20512;-89
2023/09/06 19:39:29;;;;;;;;;;;120.61;114.10;;;;;;2669918;76;20456;-89
2023/09/06 19:42:57;;;;;;;;;;;120.61;114.10;;;;;;2669026;76;20450;-89
2023/09/06 19:46:25;;;;;;;;;;;120.61;114.10;;;;;;2669607;76;20898;-89
2023/09/06 19:49:55;;;;;;;;;;;120.61;114.10;;;;;;2668564;76;20429;-89
2023/09/06 19:53:26;;;;;;;;;;;120.61;114.10;;;;;;2668434;76;20475;-89
2023/09/06 19:56:57;;;;;;;;;;;120.61;114.10;;;;;;2668600;76;20933;-89
2023/09/06 20:00:26;;;;;;;;;;;120.61;114.10;;;;;;2668248;76;20479;-90
2023/09/06 20:03:54;;;;;;;;;;;120.61;114.10;;;;;;2668686;76;20441;-91
2023/09/06 20:07:22;;;;;;;;;;;120.61;114.10;;;;;;2668461;76;20452;-90
2023/09/06 20:10:51;;;;;;;;;;;120.61;114.10;;;;;;2668165;76;20466;-90
2023/09/06 20:14:27;;;;;;;;;;;120.61;114.10;;;;;;2668153;76;20470;-90
2023/09/06 20:17:54;;;;;;;;;;;120.61;114.10;;;;;;2667729;76;20471;-90
2023/09/06 20:21:23;;;;;;;;;;;120.61;114.10;;;;;;2667980;76;20455;-90
2023/09/06 20:28:39;;;;;;;;;;;120.61;114.10;;;;;;2666748;76;20346;-89
2023/09/06 20:32:07;;;;;;;;;;;120.61;114.10;;;;;;2668866;76;20442;-90
2023/09/06 20:35:39;;;;;;;;;;;120.61;114.10;;;;;;2669355;76;20468;-90
2023/09/06 20:39:07;;;;;;;;;;;120.61;114.10;;;;;;2669002;76;20420;-89
2023/09/06 20:42:38;;;;;;;;;;;120.61;114.10;;;;;;2668206;76;20463;-89
2023/09/06 20:46:09;;;;;;;;;;;120.61;114.10;;;;;;2668888;76;20471;-89
2023/09/06 20:49:39;;;;;;;;;;;120.61;114.10;;;;;;2670013;76;20963;-89
2023/09/06 20:53:07;;;;;;;;;;;120.61;114.10;;;;;;2669145;76;20454;-90
2023/09/06 20:56:36;;;;;;;;;;;120.61;114.10;;;;;;2669737;76;20878;-90
2023/09/06 21:00:05;;;;;;;;;;;120.61;114.10;;;;;;2668592;76;20961;-90
2023/09/06 21:03:33;;;;;;;;;;;120.61;114.10;;;;;;2669785;76;21020;-89
2023/09/06 21:07:01;;;;;;;;;;;120.61;114.10;;;;;;2668638;76;20434;-90
2023/09/06 21:10:32;;;;;;;;;;;120.61;114.10;;;;;;2669947;76;20425;-89
2023/09/06 21:14:00;;;;;;;;;;;120.61;114.10;;;;;;2667895;76;20426;-89
2023/09/06 21:17:31;;;;;;;;;;;120.61;114.10;;;;;;2669972;76;20767;-90
2023/09/06 21:20:59;;;;;;;;;;;120.61;114.10;;;;;;2670326;76;20486;-89
2023/09/06 21:24:31;;;;;;;;;;;120.61;114.10;;;;;;2668346;76;20462;-91